sensor_id;sensor_type;location;lat;lon;timestamp;P1;durP1;ratioP1;P2;durP2;ratioP2
62509;SDS011;48558;48.242;11.654;2024-02-14T00:02:53;3.28;;;2.53;;
62509;SDS011;48558;48.242;11.654;2024-02-14T00:07:05;2.60;;;2.40;;
62509;SDS011;48558;48.242;11.654;2024-02-14T00:11:18;2.45;;;2.25;;
62509;SDS011;48558;48.242;11.654;2024-02-14T00:15:31;3.30;;;2.47;;
62509;SDS011;48558;48.242;11.654;2024-02-14T00:19:48;3.25;;;2.55;;
62509;SDS011;48558;48.242;11.654;2024-02-14T00:24:01;2.53;;;2.33;;
62509;SDS011;48558;48.242;11.654;2024-02-14T00:28:14;6.47;;;2.78;;
62509;SDS011;48558;48.242;11.654;2024-02-14T00:32:26;3.83;;;2.53;;
62509;SDS011;48558;48.242;11.654;2024-02-14T00:36:39;3.90;;;2.30;;
62509;SDS011;48558;48.242;11.654;2024-02-14T00:40:52;2.75;;;2.53;;
62509;SDS011;48558;48.242;11.654;2024-02-14T00:45:05;3.40;;;2.70;;
62509;SDS011;48558;48.242;11.654;2024-02-14T00:49:20;2.83;;;2.47;;
62509;SDS011;48558;48.242;11.654;2024-02-14T00:53:33;2.65;;;2.45;;
62509;SDS011;48558;48.242;11.654;2024-02-14T00:57:46;5.93;;;2.63;;
62509;SDS011;48558;48.242;11.654;2024-02-14T01:01:58;5.70;;;2.90;;
62509;SDS011;48558;48.242;11.654;2024-02-14T01:06:11;6.40;;;3.28;;
62509;SDS011;48558;48.242;11.654;2024-02-14T01:10:24;8.23;;;3.25;;
62509;SDS011;48558;48.242;11.654;2024-02-14T01:14:36;4.55;;;3.58;;
62509;SDS011;48558;48.242;11.654;2024-02-14T01:18:53;7.03;;;2.92;;
62509;SDS011;48558;48.242;11.654;2024-02-14T01:23:06;3.78;;;2.95;;
62509;SDS011;48558;48.242;11.654;2024-02-14T01:27:23;5.63;;;3.13;;
62509;SDS011;48558;48.242;11.654;2024-02-14T01:31:36;5.05;;;3.08;;
62509;SDS011;48558;48.242;11.654;2024-02-14T01:35:49;4.20;;;2.88;;
62509;SDS011;48558;48.242;11.654;2024-02-14T01:40:02;6.03;;;2.80;;
62509;SDS011;48558;48.242;11.654;2024-02-14T01:44:15;4.97;;;2.33;;
62509;SDS011;48558;48.242;11.654;2024-02-14T01:48:28;2.97;;;2.20;;
62509;SDS011;48558;48.242;11.654;2024-02-14T01:52:41;5.03;;;2.70;;
62509;SDS011;48558;48.242;11.654;2024-02-14T01:56:56;3.00;;;2.35;;
62509;SDS011;48558;48.242;11.654;2024-02-14T02:01:11;3.30;;;2.17;;
62509;SDS011;48558;48.242;11.654;2024-02-14T02:05:24;2.85;;;2.50;;
62509;SDS011;48558;48.242;11.654;2024-02-14T02:09:37;3.92;;;2.10;;
62509;SDS011;48558;48.242;11.654;2024-02-14T02:13:50;2.95;;;1.90;;
62509;SDS011;48558;48.242;11.654;2024-02-14T02:18:03;6.15;;;1.48;;
62509;SDS011;48558;48.242;11.654;2024-02-14T02:22:18;1.83;;;1.70;;
62509;SDS011;48558;48.242;11.654;2024-02-14T02:26:30;2.08;;;1.80;;
62509;SDS011;48558;48.242;11.654;2024-02-14T02:30:43;3.92;;;2.40;;
62509;SDS011;48558;48.242;11.654;2024-02-14T02:34:58;3.05;;;2.40;;
62509;SDS011;48558;48.242;11.654;2024-02-14T02:39:11;6.63;;;2.67;;
62509;SDS011;48558;48.242;11.654;2024-02-14T02:43:26;2.05;;;1.95;;
62509;SDS011;48558;48.242;11.654;2024-02-14T02:47:38;3.80;;;2.33;;
62509;SDS011;48558;48.242;11.654;2024-02-14T02:51:51;2.97;;;2.20;;
62509;SDS011;48558;48.242;11.654;2024-02-14T02:56:12;2.13;;;1.92;;
62509;SDS011;48558;48.242;11.654;2024-02-14T03:00:26;2.72;;;2.00;;
62509;SDS011;48558;48.242;11.654;2024-02-14T03:04:40;3.65;;;2.10;;
62509;SDS011;48558;48.242;11.654;2024-02-14T03:09:03;4.00;;;2.10;;
62509;SDS011;48558;48.242;11.654;2024-02-14T03:13:15;3.28;;;2.15;;
62509;SDS011;48558;48.242;11.654;2024-02-14T03:17:29;1.20;;;1.10;;
62509;SDS011;48558;48.242;11.654;2024-02-14T03:21:41;1.05;;;1.05;;
62509;SDS011;48558;48.242;11.654;2024-02-14T03:25:55;2.28;;;1.38;;
62509;SDS011;48558;48.242;11.654;2024-02-14T03:30:08;1.05;;;1.05;;
62509;SDS011;48558;48.242;11.654;2024-02-14T03:34:21;0.75;;;0.75;;
62509;SDS011;48558;48.242;11.654;2024-02-14T03:38:33;1.92;;;1.20;;
62509;SDS011;48558;48.242;11.654;2024-02-14T03:42:47;1.67;;;1.00;;
62509;SDS011;48558;48.242;11.654;2024-02-14T03:46:59;0.93;;;0.93;;
62509;SDS011;48558;48.242;11.654;2024-02-14T03:51:12;0.80;;;0.80;;
62509;SDS011;48558;48.242;11.654;2024-02-14T03:55:25;0.70;;;0.70;;
62509;SDS011;48558;48.242;11.654;2024-02-14T03:59:38;6.97;;;1.35;;
62509;SDS011;48558;48.242;11.654;2024-02-14T04:03:51;1.33;;;0.90;;
62509;SDS011;48558;48.242;11.654;2024-02-14T04:08:04;0.88;;;0.88;;
62509;SDS011;48558;48.242;11.654;2024-02-14T04:12:17;0.88;;;0.88;;
62509;SDS011;48558;48.242;11.654;2024-02-14T04:16:30;0.60;;;0.55;;
62509;SDS011;48558;48.242;11.654;2024-02-14T04:20:42;0.63;;;0.60;;
62509;SDS011;48558;48.242;11.654;2024-02-14T04:24:56;1.67;;;0.73;;
62509;SDS011;48558;48.242;11.654;2024-02-14T04:29:09;0.70;;;0.70;;
62509;SDS011;48558;48.242;11.654;2024-02-14T04:33:21;1.38;;;1.08;;
62509;SDS011;48558;48.242;11.654;2024-02-14T04:37:34;0.50;;;0.50;;
62509;SDS011;48558;48.242;11.654;2024-02-14T04:41:47;1.00;;;0.88;;
62509;SDS011;48558;48.242;11.654;2024-02-14T04:46:12;1.75;;;0.90;;
62509;SDS011;48558;48.242;11.654;2024-02-14T04:50:24;1.98;;;0.80;;
62509;SDS011;48558;48.242;11.654;2024-02-14T04:54:37;0.80;;;0.80;;
62509;SDS011;48558;48.242;11.654;2024-02-14T04:58:49;1.48;;;0.73;;
62509;SDS011;48558;48.242;11.654;2024-02-14T05:03:02;2.45;;;1.00;;
62509;SDS011;48558;48.242;11.654;2024-02-14T05:07:16;3.33;;;0.80;;
62509;SDS011;48558;48.242;11.654;2024-02-14T05:11:28;3.33;;;0.88;;
62509;SDS011;48558;48.242;11.654;2024-02-14T05:15:42;0.70;;;0.70;;
62509;SDS011;48558;48.242;11.654;2024-02-14T05:19:54;1.58;;;0.57;;
62509;SDS011;48558;48.242;11.654;2024-02-14T05:24:07;2.40;;;0.93;;
62509;SDS011;48558;48.242;11.654;2024-02-14T05:28:20;0.80;;;0.80;;
62509;SDS011;48558;48.242;11.654;2024-02-14T05:32:33;1.33;;;0.80;;
62509;SDS011;48558;48.242;11.654;2024-02-14T05:36:45;3.08;;;0.85;;
62509;SDS011;48558;48.242;11.654;2024-02-14T05:40:58;0.60;;;0.60;;
62509;SDS011;48558;48.242;11.654;2024-02-14T05:45:11;0.60;;;0.60;;
62509;SDS011;48558;48.242;11.654;2024-02-14T05:49:23;0.57;;;0.57;;
62509;SDS011;48558;48.242;11.654;2024-02-14T05:53:37;0.82;;;0.82;;
62509;SDS011;48558;48.242;11.654;2024-02-14T05:57:50;2.40;;;1.00;;
62509;SDS011;48558;48.242;11.654;2024-02-14T06:02:04;1.25;;;1.05;;
62509;SDS011;48558;48.242;11.654;2024-02-14T06:06:18;0.50;;;0.50;;
62509;SDS011;48558;48.242;11.654;2024-02-14T06:10:30;2.15;;;0.80;;
62509;SDS011;48558;48.242;11.654;2024-02-14T06:14:43;0.63;;;0.63;;
62509;SDS011;48558;48.242;11.654;2024-02-14T06:18:55;0.80;;;0.80;;
62509;SDS011;48558;48.242;11.654;2024-02-14T06:23:08;1.13;;;0.98;;
62509;SDS011;48558;48.242;11.654;2024-02-14T06:27:21;4.28;;;0.90;;
62509;SDS011;48558;48.242;11.654;2024-02-14T06:31:41;0.70;;;0.70;;
62509;SDS011;48558;48.242;11.654;2024-02-14T06:36:04;0.88;;;0.88;;
62509;SDS011;48558;48.242;11.654;2024-02-14T06:40:17;1.92;;;0.88;;
62509;SDS011;48558;48.242;11.654;2024-02-14T06:44:37;0.88;;;0.80;;
62509;SDS011;48558;48.242;11.654;2024-02-14T06:48:49;1.38;;;1.00;;
62509;SDS011;48558;48.242;11.654;2024-02-14T06:53:03;1.52;;;0.90;;
62509;SDS011;48558;48.242;11.654;2024-02-14T06:57:16;1.00;;;1.00;;
62509;SDS011;48558;48.242;11.654;2024-02-14T07:01:29;1.52;;;1.15;;
62509;SDS011;48558;48.242;11.654;2024-02-14T07:05:43;0.75;;;0.75;;
62509;SDS011;48558;48.242;11.654;2024-02-14T07:09:56;1.50;;;0.98;;
62509;SDS011;48558;48.242;11.654;2024-02-14T07:14:08;1.40;;;1.05;;
62509;SDS011;48558;48.242;11.654;2024-02-14T07:18:21;4.22;;;1.20;;
62509;SDS011;48558;48.242;11.654;2024-02-14T07:22:34;1.83;;;1.27;;
62509;SDS011;48558;48.242;11.654;2024-02-14T07:26:47;0.93;;;0.93;;
62509;SDS011;48558;48.242;11.654;2024-02-14T07:31:00;1.20;;;1.10;;
62509;SDS011;48558;48.242;11.654;2024-02-14T07:35:12;1.20;;;1.08;;
62509;SDS011;48558;48.242;11.654;2024-02-14T07:39:25;8.15;;;1.60;;
62509;SDS011;48558;48.242;11.654;2024-02-14T07:43:38;2.28;;;1.50;;
62509;SDS011;48558;48.242;11.654;2024-02-14T07:47:50;1.13;;;1.02;;
62509;SDS011;48558;48.242;11.654;2024-02-14T07:52:03;1.85;;;1.25;;
62509;SDS011;48558;48.242;11.654;2024-02-14T07:56:17;2.70;;;1.17;;
62509;SDS011;48558;48.242;11.654;2024-02-14T08:00:30;1.50;;;1.10;;
62509;SDS011;48558;48.242;11.654;2024-02-14T08:04:42;0.95;;;0.85;;
62509;SDS011;48558;48.242;11.654;2024-02-14T08:08:55;1.05;;;0.98;;
62509;SDS011;48558;48.242;11.654;2024-02-14T08:13:13;1.98;;;1.17;;
62509;SDS011;48558;48.242;11.654;2024-02-14T08:17:28;6.32;;;1.30;;
62509;SDS011;48558;48.242;11.654;2024-02-14T08:21:41;7.22;;;1.13;;
62509;SDS011;48558;48.242;11.654;2024-02-14T08:25:54;1.08;;;1.05;;
62509;SDS011;48558;48.242;11.654;2024-02-14T08:30:07;3.72;;;1.33;;
62509;SDS011;48558;48.242;11.654;2024-02-14T08:34:21;1.92;;;1.30;;
62509;SDS011;48558;48.242;11.654;2024-02-14T08:38:34;4.05;;;1.10;;
62509;SDS011;48558;48.242;11.654;2024-02-14T08:42:47;2.45;;;1.10;;
62509;SDS011;48558;48.242;11.654;2024-02-14T08:46:59;1.95;;;1.05;;
62509;SDS011;48558;48.242;11.654;2024-02-14T08:51:12;1.73;;;1.10;;
62509;SDS011;48558;48.242;11.654;2024-02-14T08:55:25;0.98;;;0.93;;
62509;SDS011;48558;48.242;11.654;2024-02-14T08:59:38;3.05;;;1.15;;
62509;SDS011;48558;48.242;11.654;2024-02-14T09:03:51;2.28;;;1.13;;
62509;SDS011;48558;48.242;11.654;2024-02-14T09:08:03;0.93;;;0.93;;
62509;SDS011;48558;48.242;11.654;2024-02-14T09:12:16;2.90;;;1.15;;
62509;SDS011;48558;48.242;11.654;2024-02-14T09:16:29;2.08;;;1.15;;
62509;SDS011;48558;48.242;11.654;2024-02-14T09:20:41;1.63;;;0.93;;
62509;SDS011;48558;48.242;11.654;2024-02-14T09:24:58;1.52;;;1.02;;
62509;SDS011;48558;48.242;11.654;2024-02-14T09:29:11;2.67;;;0.95;;
62509;SDS011;48558;48.242;11.654;2024-02-14T09:33:23;2.42;;;0.95;;
62509;SDS011;48558;48.242;11.654;2024-02-14T09:37:37;1.25;;;1.00;;
62509;SDS011;48558;48.242;11.654;2024-02-14T09:41:58;1.35;;;1.00;;
62509;SDS011;48558;48.242;11.654;2024-02-14T09:46:14;6.60;;;2.05;;
62509;SDS011;48558;48.242;11.654;2024-02-14T09:50:28;5.50;;;1.75;;
62509;SDS011;48558;48.242;11.654;2024-02-14T09:54:43;3.90;;;1.17;;
62509;SDS011;48558;48.242;11.654;2024-02-14T09:58:56;2.35;;;1.10;;
62509;SDS011;48558;48.242;11.654;2024-02-14T10:03:12;1.20;;;1.00;;
62509;SDS011;48558;48.242;11.654;2024-02-14T10:07:25;0.82;;;0.80;;
62509;SDS011;48558;48.242;11.654;2024-02-14T10:11:38;1.40;;;1.10;;
62509;SDS011;48558;48.242;11.654;2024-02-14T10:15:52;0.60;;;0.60;;
62509;SDS011;48558;48.242;11.654;2024-02-14T10:20:07;1.02;;;0.90;;
62509;SDS011;48558;48.242;11.654;2024-02-14T10:24:20;0.95;;;0.80;;
62509;SDS011;48558;48.242;11.654;2024-02-14T10:28:33;0.93;;;0.90;;
62509;SDS011;48558;48.242;11.654;2024-02-14T10:32:53;1.75;;;0.63;;
62509;SDS011;48558;48.242;11.654;2024-02-14T10:37:06;1.38;;;0.82;;
62509;SDS011;48558;48.242;11.654;2024-02-14T10:41:20;2.60;;;0.85;;
62509;SDS011;48558;48.242;11.654;2024-02-14T10:45:33;1.10;;;0.90;;
62509;SDS011;48558;48.242;11.654;2024-02-14T10:49:45;0.60;;;0.60;;
62509;SDS011;48558;48.242;11.654;2024-02-14T10:54:02;2.20;;;0.90;;
62509;SDS011;48558;48.242;11.654;2024-02-14T10:58:18;3.45;;;1.10;;
62509;SDS011;48558;48.242;11.654;2024-02-14T11:02:31;4.03;;;0.90;;
62509;SDS011;48558;48.242;11.654;2024-02-14T11:06:48;1.55;;;0.65;;
62509;SDS011;48558;48.242;11.654;2024-02-14T11:11:06;4.28;;;1.05;;
62509;SDS011;48558;48.242;11.654;2024-02-14T11:15:20;0.63;;;0.60;;
62509;SDS011;48558;48.242;11.654;2024-02-14T11:19:34;1.35;;;0.63;;
62509;SDS011;48558;48.242;11.654;2024-02-14T11:23:54;0.80;;;0.80;;
62509;SDS011;48558;48.242;11.654;2024-02-14T11:28:17;1.08;;;0.70;;
62509;SDS011;48558;48.242;11.654;2024-02-14T11:32:36;0.90;;;0.75;;
62509;SDS011;48558;48.242;11.654;2024-02-14T11:36:51;1.23;;;0.80;;
62509;SDS011;48558;48.242;11.654;2024-02-14T11:41:04;0.70;;;0.60;;
62509;SDS011;48558;48.242;11.654;2024-02-14T11:45:17;2.75;;;0.93;;
62509;SDS011;48558;48.242;11.654;2024-02-14T11:49:30;1.05;;;0.68;;
62509;SDS011;48558;48.242;11.654;2024-02-14T11:53:42;3.13;;;0.60;;
62509;SDS011;48558;48.242;11.654;2024-02-14T11:57:55;0.50;;;0.50;;
62509;SDS011;48558;48.242;11.654;2024-02-14T12:02:10;1.05;;;0.70;;
62509;SDS011;48558;48.242;11.654;2024-02-14T12:06:23;0.60;;;0.60;;
62509;SDS011;48558;48.242;11.654;2024-02-14T12:10:36;0.77;;;0.60;;
62509;SDS011;48558;48.242;11.654;2024-02-14T12:14:52;1.20;;;0.77;;
62509;SDS011;48558;48.242;11.654;2024-02-14T12:19:14;4.18;;;0.90;;
62509;SDS011;48558;48.242;11.654;2024-02-14T12:23:28;0.57;;;0.57;;
62509;SDS011;48558;48.242;11.654;2024-02-14T12:27:41;0.70;;;0.70;;
62509;SDS011;48558;48.242;11.654;2024-02-14T12:32:02;3.85;;;1.75;;
62509;SDS011;48558;48.242;11.654;2024-02-14T12:36:20;1.63;;;0.63;;
62509;SDS011;48558;48.242;11.654;2024-02-14T12:40:34;0.73;;;0.73;;
62509;SDS011;48558;48.242;11.654;2024-02-14T12:44:48;0.75;;;0.70;;
62509;SDS011;48558;48.242;11.654;2024-02-14T12:49:00;1.40;;;1.30;;
62509;SDS011;48558;48.242;11.654;2024-02-14T12:53:14;0.60;;;0.50;;
62509;SDS011;48558;48.242;11.654;2024-02-14T12:57:26;0.60;;;0.60;;
62509;SDS011;48558;48.242;11.654;2024-02-14T13:01:39;0.50;;;0.40;;
62509;SDS011;48558;48.242;11.654;2024-02-14T13:05:52;0.98;;;0.50;;
62509;SDS011;48558;48.242;11.654;2024-02-14T13:10:06;0.43;;;0.43;;
62509;SDS011;48558;48.242;11.654;2024-02-14T13:14:22;0.90;;;0.75;;
62509;SDS011;48558;48.242;11.654;2024-02-14T13:18:35;0.80;;;0.80;;
62509;SDS011;48558;48.242;11.654;2024-02-14T13:22:49;6.63;;;2.90;;
62509;SDS011;48558;48.242;11.654;2024-02-14T13:27:01;1.65;;;0.90;;
62509;SDS011;48558;48.242;11.654;2024-02-14T13:31:14;0.75;;;0.75;;
62509;SDS011;48558;48.242;11.654;2024-02-14T13:35:26;0.50;;;0.50;;
62509;SDS011;48558;48.242;11.654;2024-02-14T13:39:39;0.55;;;0.55;;
62509;SDS011;48558;48.242;11.654;2024-02-14T13:43:52;0.57;;;0.45;;
62509;SDS011;48558;48.242;11.654;2024-02-14T13:48:05;0.73;;;0.73;;
62509;SDS011;48558;48.242;11.654;2024-02-14T13:52:20;0.55;;;0.55;;
62509;SDS011;48558;48.242;11.654;2024-02-14T13:56:32;0.38;;;0.38;;
62509;SDS011;48558;48.242;11.654;2024-02-14T14:00:45;0.65;;;0.65;;
62509;SDS011;48558;48.242;11.654;2024-02-14T14:04:57;1.13;;;0.63;;
62509;SDS011;48558;48.242;11.654;2024-02-14T14:09:10;0.70;;;0.50;;
62509;SDS011;48558;48.242;11.654;2024-02-14T14:13:23;1.27;;;0.57;;
62509;SDS011;48558;48.242;11.654;2024-02-14T14:17:35;0.45;;;0.43;;
62509;SDS011;48558;48.242;11.654;2024-02-14T14:21:49;4.22;;;0.80;;
62509;SDS011;48558;48.242;11.654;2024-02-14T14:26:01;1.20;;;0.40;;
62509;SDS011;48558;48.242;11.654;2024-02-14T14:30:14;1.25;;;0.82;;
62509;SDS011;48558;48.242;11.654;2024-02-14T14:34:27;0.77;;;0.77;;
62509;SDS011;48558;48.242;11.654;2024-02-14T14:38:43;0.50;;;0.50;;
62509;SDS011;48558;48.242;11.654;2024-02-14T14:42:55;7.22;;;0.80;;
62509;SDS011;48558;48.242;11.654;2024-02-14T14:47:08;0.60;;;0.50;;
62509;SDS011;48558;48.242;11.654;2024-02-14T14:51:21;0.60;;;0.50;;
62509;SDS011;48558;48.242;11.654;2024-02-14T14:56:08;0.77;;;0.50;;
62509;SDS011;48558;48.242;11.654;2024-02-14T15:00:13;0.60;;;0.60;;
62509;SDS011;48558;48.242;11.654;2024-02-14T15:04:26;2.50;;;0.95;;
62509;SDS011;48558;48.242;11.654;2024-02-14T15:08:39;2.40;;;0.70;;
62509;SDS011;48558;48.242;11.654;2024-02-14T15:12:51;3.75;;;0.70;;
62509;SDS011;48558;48.242;11.654;2024-02-14T15:17:04;8.02;;;2.72;;
62509;SDS011;48558;48.242;11.654;2024-02-14T15:21:17;2.75;;;1.10;;
62509;SDS011;48558;48.242;11.654;2024-02-14T15:25:29;1.52;;;0.57;;
62509;SDS011;48558;48.242;11.654;2024-02-14T15:29:42;0.60;;;0.60;;
62509;SDS011;48558;48.242;11.654;2024-02-14T15:34:13;0.70;;;0.70;;
62509;SDS011;48558;48.242;11.654;2024-02-14T15:38:26;1.17;;;0.75;;
62509;SDS011;48558;48.242;11.654;2024-02-14T15:42:38;1.90;;;0.65;;
62509;SDS011;48558;48.242;11.654;2024-02-14T15:46:51;0.77;;;0.70;;
62509;SDS011;48558;48.242;11.654;2024-02-14T15:51:04;0.68;;;0.63;;
62509;SDS011;48558;48.242;11.654;2024-02-14T15:55:16;0.60;;;0.60;;
62509;SDS011;48558;48.242;11.654;2024-02-14T15:59:29;0.50;;;0.50;;
62509;SDS011;48558;48.242;11.654;2024-02-14T16:03:42;0.60;;;0.60;;
62509;SDS011;48558;48.242;11.654;2024-02-14T16:07:54;0.93;;;0.75;;
62509;SDS011;48558;48.242;11.654;2024-02-14T16:12:07;0.70;;;0.70;;
62509;SDS011;48558;48.242;11.654;2024-02-14T16:16:21;0.65;;;0.65;;
62509;SDS011;48558;48.242;11.654;2024-02-14T16:20:33;1.27;;;1.10;;
62509;SDS011;48558;48.242;11.654;2024-02-14T16:24:46;0.95;;;0.90;;
62509;SDS011;48558;48.242;11.654;2024-02-14T16:29:01;0.70;;;0.70;;
62509;SDS011;48558;48.242;11.654;2024-02-14T16:33:14;0.88;;;0.88;;
62509;SDS011;48558;48.242;11.654;2024-02-14T16:37:27;1.08;;;1.05;;
62509;SDS011;48558;48.242;11.654;2024-02-14T16:41:40;3.67;;;1.10;;
62509;SDS011;48558;48.242;11.654;2024-02-14T16:45:52;1.60;;;1.17;;
62509;SDS011;48558;48.242;11.654;2024-02-14T16:50:05;5.78;;;1.45;;
62509;SDS011;48558;48.242;11.654;2024-02-14T16:54:19;2.47;;;1.73;;
62509;SDS011;48558;48.242;11.654;2024-02-14T16:58:34;3.45;;;1.50;;
62509;SDS011;48558;48.242;11.654;2024-02-14T17:02:47;1.50;;;1.40;;
62509;SDS011;48558;48.242;11.654;2024-02-14T17:06:59;3.67;;;1.48;;
62509;SDS011;48558;48.242;11.654;2024-02-14T17:11:15;1.42;;;1.33;;
62509;SDS011;48558;48.242;11.654;2024-02-14T17:15:29;2.05;;;1.50;;
62509;SDS011;48558;48.242;11.654;2024-02-14T17:19:41;2.17;;;1.60;;
62509;SDS011;48558;48.242;11.654;2024-02-14T17:23:54;2.15;;;1.13;;
62509;SDS011;48558;48.242;11.654;2024-02-14T17:28:07;1.52;;;1.42;;
62509;SDS011;48558;48.242;11.654;2024-02-14T17:32:19;0.88;;;0.88;;
62509;SDS011;48558;48.242;11.654;2024-02-14T17:36:49;0.80;;;0.80;;
62509;SDS011;48558;48.242;11.654;2024-02-14T17:41:02;3.22;;;0.93;;
62509;SDS011;48558;48.242;11.654;2024-02-14T17:45:15;1.20;;;1.10;;
62509;SDS011;48558;48.242;11.654;2024-02-14T17:49:27;1.70;;;1.25;;
62509;SDS011;48558;48.242;11.654;2024-02-14T17:53:41;1.55;;;1.17;;
62509;SDS011;48558;48.242;11.654;2024-02-14T17:57:56;2.05;;;1.50;;
62509;SDS011;48558;48.242;11.654;2024-02-14T18:02:09;4.75;;;1.30;;
62509;SDS011;48558;48.242;11.654;2024-02-14T18:06:22;2.67;;;1.48;;
62509;SDS011;48558;48.242;11.654;2024-02-14T18:10:35;3.28;;;1.38;;
62509;SDS011;48558;48.242;11.654;2024-02-14T18:14:47;0.95;;;0.95;;
62509;SDS011;48558;48.242;11.654;2024-02-14T18:19:00;1.95;;;1.40;;
62509;SDS011;48558;48.242;11.654;2024-02-14T18:23:12;1.25;;;1.25;;
62509;SDS011;48558;48.242;11.654;2024-02-14T18:27:27;4.65;;;1.20;;
62509;SDS011;48558;48.242;11.654;2024-02-14T18:31:40;2.83;;;1.10;;
62509;SDS011;48558;48.242;11.654;2024-02-14T18:35:53;1.35;;;1.10;;
62509;SDS011;48558;48.242;11.654;2024-02-14T18:40:06;1.20;;;1.10;;
62509;SDS011;48558;48.242;11.654;2024-02-14T18:44:20;3.60;;;1.17;;
62509;SDS011;48558;48.242;11.654;2024-02-14T18:48:33;1.10;;;1.10;;
62509;SDS011;48558;48.242;11.654;2024-02-14T18:52:45;3.63;;;1.33;;
62509;SDS011;48558;48.242;11.654;2024-02-14T18:56:58;1.85;;;1.10;;
62509;SDS011;48558;48.242;11.654;2024-02-14T19:01:21;1.40;;;1.30;;
62509;SDS011;48558;48.242;11.654;2024-02-14T19:05:35;1.35;;;1.10;;
62509;SDS011;48558;48.242;11.654;2024-02-14T19:09:48;1.20;;;1.10;;
62509;SDS011;48558;48.242;11.654;2024-02-14T19:14:01;1.23;;;1.00;;
62509;SDS011;48558;48.242;11.654;2024-02-14T19:18:13;1.27;;;1.17;;
62509;SDS011;48558;48.242;11.654;2024-02-14T19:22:26;2.42;;;1.00;;
62509;SDS011;48558;48.242;11.654;2024-02-14T19:26:38;4.25;;;1.13;;
62509;SDS011;48558;48.242;11.654;2024-02-14T19:30:51;1.02;;;1.00;;
62509;SDS011;48558;48.242;11.654;2024-02-14T19:35:04;1.30;;;1.20;;
62509;SDS011;48558;48.242;11.654;2024-02-14T19:39:17;4.20;;;1.10;;
62509;SDS011;48558;48.242;11.654;2024-02-14T19:43:30;1.30;;;1.10;;
62509;SDS011;48558;48.242;11.654;2024-02-14T19:47:50;2.58;;;1.58;;
62509;SDS011;48558;48.242;11.654;2024-02-14T19:52:03;1.95;;;1.23;;
62509;SDS011;48558;48.242;11.654;2024-02-14T19:56:17;5.70;;;1.38;;
62509;SDS011;48558;48.242;11.654;2024-02-14T20:00:30;1.77;;;1.23;;
62509;SDS011;48558;48.242;11.654;2024-02-14T20:04:43;1.40;;;1.27;;
62509;SDS011;48558;48.242;11.654;2024-02-14T20:08:56;1.60;;;1.50;;
62509;SDS011;48558;48.242;11.654;2024-02-14T20:13:11;2.15;;;1.40;;
62509;SDS011;48558;48.242;11.654;2024-02-14T20:17:24;1.30;;;1.20;;
62509;SDS011;48558;48.242;11.654;2024-02-14T20:21:36;1.55;;;1.17;;
62509;SDS011;48558;48.242;11.654;2024-02-14T20:25:49;1.92;;;1.17;;
62509;SDS011;48558;48.242;11.654;2024-02-14T20:30:02;2.05;;;1.20;;
62509;SDS011;48558;48.242;11.654;2024-02-14T20:34:19;1.45;;;1.35;;
62509;SDS011;48558;48.242;11.654;2024-02-14T20:38:31;1.42;;;1.10;;
62509;SDS011;48558;48.242;11.654;2024-02-14T20:42:44;1.40;;;1.30;;
62509;SDS011;48558;48.242;11.654;2024-02-14T20:46:57;1.48;;;1.38;;
62509;SDS011;48558;48.242;11.654;2024-02-14T20:51:10;1.88;;;1.48;;
62509;SDS011;48558;48.242;11.654;2024-02-14T20:55:23;1.50;;;1.40;;
62509;SDS011;48558;48.242;11.654;2024-02-14T20:59:36;1.70;;;1.48;;
62509;SDS011;48558;48.242;11.654;2024-02-14T21:03:48;1.55;;;1.40;;
62509;SDS011;48558;48.242;11.654;2024-02-14T21:08:04;2.10;;;1.35;;
62509;SDS011;48558;48.242;11.654;2024-02-14T21:12:17;1.77;;;1.13;;
62509;SDS011;48558;48.242;11.654;2024-02-14T21:16:32;1.77;;;1.58;;
62509;SDS011;48558;48.242;11.654;2024-02-14T21:20:45;1.63;;;1.50;;
62509;SDS011;48558;48.242;11.654;2024-02-14T21:24:58;2.78;;;1.23;;
62509;SDS011;48558;48.242;11.654;2024-02-14T21:29:10;2.80;;;1.33;;
62509;SDS011;48558;48.242;11.654;2024-02-14T21:33:23;1.58;;;1.40;;
62509;SDS011;48558;48.242;11.654;2024-02-14T21:37:36;2.90;;;1.08;;
62509;SDS011;48558;48.242;11.654;2024-02-14T21:41:50;5.70;;;1.60;;
62509;SDS011;48558;48.242;11.654;2024-02-14T21:46:03;1.50;;;1.40;;
62509;SDS011;48558;48.242;11.654;2024-02-14T21:50:17;1.20;;;1.10;;
62509;SDS011;48558;48.242;11.654;2024-02-14T21:54:30;1.30;;;1.20;;
62509;SDS011;48558;48.242;11.654;2024-02-14T21:58:44;2.22;;;1.60;;
62509;SDS011;48558;48.242;11.654;2024-02-14T22:02:56;3.85;;;1.40;;
62509;SDS011;48558;48.242;11.654;2024-02-14T22:07:09;1.42;;;1.30;;
62509;SDS011;48558;48.242;11.654;2024-02-14T22:11:22;1.52;;;1.42;;
62509;SDS011;48558;48.242;11.654;2024-02-14T22:15:36;2.85;;;1.70;;
62509;SDS011;48558;48.242;11.654;2024-02-14T22:19:50;1.70;;;1.45;;
62509;SDS011;48558;48.242;11.654;2024-02-14T22:24:02;1.77;;;1.40;;
62509;SDS011;48558;48.242;11.654;2024-02-14T22:28:16;1.60;;;1.50;;
62509;SDS011;48558;48.242;11.654;2024-02-14T22:32:30;1.45;;;1.35;;
62509;SDS011;48558;48.242;11.654;2024-02-14T22:36:43;3.00;;;1.55;;
62509;SDS011;48558;48.242;11.654;2024-02-14T22:40:56;1.65;;;1.50;;
62509;SDS011;48558;48.242;11.654;2024-02-14T22:45:12;1.55;;;1.33;;
62509;SDS011;48558;48.242;11.654;2024-02-14T22:49:26;1.67;;;1.50;;
62509;SDS011;48558;48.242;11.654;2024-02-14T22:53:38;1.33;;;1.23;;
62509;SDS011;48558;48.242;11.654;2024-02-14T22:57:52;1.20;;;1.20;;
62509;SDS011;48558;48.242;11.654;2024-02-14T23:02:05;1.23;;;1.20;;
62509;SDS011;48558;48.242;11.654;2024-02-14T23:06:20;1.35;;;1.13;;
62509;SDS011;48558;48.242;11.654;2024-02-14T23:10:33;1.20;;;1.10;;
62509;SDS011;48558;48.242;11.654;2024-02-14T23:14:46;1.10;;;1.08;;
62509;SDS011;48558;48.242;11.654;2024-02-14T23:18:59;0.90;;;0.90;;
62509;SDS011;48558;48.242;11.654;2024-02-14T23:23:12;1.33;;;1.20;;
62509;SDS011;48558;48.242;11.654;2024-02-14T23:27:24;1.00;;;1.00;;
62509;SDS011;48558;48.242;11.654;2024-02-14T23:31:38;1.30;;;1.10;;
62509;SDS011;48558;48.242;11.654;2024-02-14T23:35:52;1.02;;;1.02;;
62509;SDS011;48558;48.242;11.654;2024-02-14T23:40:05;1.15;;;1.13;;
62509;SDS011;48558;48.242;11.654;2024-02-14T23:44:23;3.07;;;1.30;;
62509;SDS011;48558;48.242;11.654;2024-02-14T23:48:36;1.17;;;1.15;;
62509;SDS011;48558;48.242;11.654;2024-02-14T23:52:49;1.00;;;1.00;;
62509;SDS011;48558;48.242;11.654;2024-02-14T23:57:02;1.30;;;1.20;;
